Terminal Aerodrome Forecast
Issued by NWS Charleston, WV

Current Version | Previous Version | Graphics & Text | Print | Product List | Glossary On
Versions: 1 2 3 4 5 6 7 8 9 10 11 12 13 14 15 16 17 18 19 20 21 22 23
000
FTUS41 KRLX 231838 AAA
TAFBKW
TAF AMD
KBKW 231838Z 2319/2418 35006KT P6SM BKN040
     FM232100 35006KT P6SM VCTS BKN040CB
     FM232300 34004KT P6SM SCT040
     FM240700 00000KT P6SM FEW025
     FM241600 29005KT P6SM SCT250=

USA.gov is the U.S. government's official web portal to all federal, state and local government web resources and services.